createdAt,value
2022-10-01T00:00:02.741Z,11.7
2022-10-01T00:15:05.952Z,11.8
2022-10-01T00:30:02.615Z,11.9
2022-10-01T00:45:03.041Z,11.9
2022-10-01T01:00:02.623Z,11.9
2022-10-01T01:15:02.926Z,11.9
2022-10-01T01:30:02.356Z,11.9
2022-10-01T01:45:02.812Z,11.7
2022-10-01T02:00:03.253Z,11.4
2022-10-01T02:15:02.686Z,11.0
2022-10-01T02:30:03.123Z,10.7
2022-10-01T02:45:02.650Z,10.5
2022-10-01T03:00:03.017Z,10.4
2022-10-01T03:15:02.643Z,10.2
2022-10-01T03:30:02.897Z,10.1
2022-10-01T03:45:02.348Z,10.1
2022-10-01T04:00:02.788Z,10.0
2022-10-01T04:15:03.237Z,10.0
2022-10-01T04:30:02.677Z,10.0
2022-10-01T04:45:03.127Z,9.9
2022-10-01T05:00:02.667Z,9.9
2022-10-01T05:15:02.982Z,10.0
2022-10-01T05:30:02.669Z,10.0
2022-10-01T05:45:02.893Z,10.1
2022-10-01T06:00:02.343Z,10.2
2022-10-01T06:15:02.765Z,10.3
2022-10-01T06:30:02.202Z,10.4
2022-10-01T06:45:02.678Z,10.5
2022-10-01T07:00:03.144Z,10.7
2022-10-01T07:15:02.669Z,10.8
2022-10-01T07:30:02.996Z,10.9
2022-10-01T07:45:02.413Z,11.0
2022-10-01T08:00:02.859Z,11.2
2022-10-01T08:15:02.304Z,11.5
2022-10-01T08:30:02.768Z,11.7
2022-10-01T08:45:03.149Z,12.3
2022-10-01T09:00:02.726Z,13.2
2022-10-01T09:15:03.058Z,13.1
2022-10-01T09:30:02.711Z,13.0
2022-10-01T09:45:02.959Z,13.4
2022-10-01T10:00:02.354Z,14.5
2022-10-01T10:15:02.848Z,14.5
2022-10-01T10:30:02.281Z,16.0
2022-10-01T10:45:02.725Z,16.0
2022-10-01T11:00:03.136Z,16.2
2022-10-01T11:15:02.721Z,16.6
2022-10-01T11:30:03.054Z,16.4
2022-10-01T11:45:02.633Z,16.8
2022-10-01T12:00:02.925Z,16.9
2022-10-01T12:15:06.443Z,18.2
2022-10-01T12:30:02.819Z,18.2
2022-10-01T12:45:02.252Z,17.4
2022-10-01T13:00:02.750Z,13.5
2022-10-01T13:15:03.118Z,11.8
2022-10-01T13:30:02.764Z,12.0
2022-10-01T13:45:02.984Z,12.2
2022-10-01T14:00:02.422Z,12.9
2022-10-01T14:15:02.878Z,13.7
2022-10-01T14:30:02.325Z,14.3
2022-10-01T14:45:02.752Z,14.5
2022-10-01T15:00:03.261Z,13.9
2022-10-01T15:15:02.754Z,13.5
2022-10-01T15:30:03.116Z,13.3
2022-10-01T15:45:02.776Z,13.5
2022-10-01T16:00:03.000Z,13.7
2022-10-01T16:15:02.409Z,13.8
2022-10-01T16:30:05.592Z,13.7
2022-10-01T16:45:02.318Z,13.5
2022-10-01T17:00:02.800Z,13.3
2022-10-01T17:15:03.179Z,12.9
2022-10-01T17:30:02.801Z,12.4
2022-10-01T17:45:03.073Z,12.0
2022-10-01T18:00:02.515Z,11.7
2022-10-01T18:15:02.937Z,11.5
2022-10-01T18:30:02.360Z,11.4
2022-10-01T18:45:02.842Z,11.2
2022-10-01T19:00:02.288Z,10.9
2022-10-01T19:15:02.827Z,10.7
2022-10-01T19:30:02.174Z,10.7
2022-10-01T19:45:02.801Z,10.7
2022-10-01T20:00:03.057Z,10.5
2022-10-01T20:15:02.506Z,10.3
2022-10-01T20:30:02.973Z,10.2
2022-10-01T20:45:02.365Z,10.1
2022-10-01T21:00:02.814Z,10.0
2022-10-01T21:15:03.244Z,9.8
2022-10-01T21:30:02.856Z,10.1
2022-10-01T21:45:02.090Z,10.2
2022-10-01T22:00:02.539Z,10.2
2022-10-01T22:15:01.984Z,10.1
2022-10-01T22:30:02.408Z,10.0
2022-10-01T22:45:02.864Z,10.0
2022-10-01T23:00:02.279Z,10.1
2022-10-01T23:15:02.901Z,10.3
2022-10-01T23:30:02.165Z,10.5
2022-10-01T23:45:02.821Z,10.7
